Time;durP1;ratioP1;P1;durP2;ratioP2;P2;SDS_P1;SDS_P2;PMS_P1;PMS_P2;Temp;Humidity;BMP_temperature;BMP_pressure;BME280_temperature;BME280_humidity;BME280_pressure;Samples;Min_cycle;Max_cycle;Signal;HPM_P1;HPM_P2
2024/03/12 09:08:33;;;;;;;20.90;8.17;;;9.10;99.90;;;;;;4932617;23;20333;-74
2024/03/12 09:11:04;;;;;;;16.93;7.03;;;9.10;99.90;;;;;;4891858;29;20262;-72
2024/03/12 09:13:31;;;;;;;16.83;6.87;;;9.20;99.90;;;;;;4897375;29;20271;-72
2024/03/12 09:15:58;;;;;;;14.37;6.03;;;9.20;99.90;;;;;;4897189;29;20627;-73
2024/03/12 09:18:25;;;;;;;14.90;6.60;;;9.20;99.90;;;;;;4897251;29;20306;-73
2024/03/12 09:20:51;;;;;;;16.77;7.33;;;9.10;99.90;;;;;;4897599;29;20325;-74
2024/03/12 09:23:19;;;;;;;17.07;6.43;;;9.20;99.90;;;;;;4897351;29;20664;-72
2024/03/12 09:25:47;;;;;;;15.07;6.57;;;9.10;99.90;;;;;;4897453;29;20237;-74
2024/03/12 09:28:16;;;;;;;20.20;6.70;;;9.10;99.90;;;;;;4896992;29;20762;-74
2024/03/12 09:30:44;;;;;;;15.93;6.57;;;9.10;99.90;;;;;;4897164;29;20218;-73
2024/03/12 09:33:10;;;;;;;16.73;7.23;;;9.20;99.90;;;;;;4897060;29;20638;-72
2024/03/12 09:35:38;;;;;;;20.63;7.60;;;9.50;99.90;;;;;;4897145;29;20230;-74
2024/03/12 09:38:09;;;;;;;18.87;7.00;;;9.60;99.90;;;;;;4897624;29;20301;-72
2024/03/12 09:40:36;;;;;;;17.37;7.13;;;9.60;99.90;;;;;;4896465;29;20329;-73
2024/03/12 09:43:06;;;;;;;21.73;7.63;;;9.70;99.90;;;;;;4897355;29;20297;-74
2024/03/12 09:45:34;;;;;;;27.40;8.23;;;10.00;99.90;;;;;;4906417;29;20261;-76
2024/03/12 09:48:01;;;;;;;19.07;7.37;;;10.10;99.90;;;;;;4904149;29;20621;-76
2024/03/12 09:50:29;;;;;;;22.23;7.70;;;10.20;99.90;;;;;;4900556;29;20218;-74
2024/03/12 09:52:56;;;;;;;20.20;7.77;;;10.30;99.90;;;;;;4900847;29;20217;-74
2024/03/12 09:55:25;;;;;;;24.33;8.93;;;10.50;99.90;;;;;;4895227;29;20316;-74
2024/03/12 09:57:51;;;;;;;21.33;7.63;;;10.70;99.90;;;;;;4900602;29;20215;-73
2024/03/12 10:00:22;;;;;;;25.60;8.37;;;10.70;99.90;;;;;;4899338;29;20238;-73
2024/03/12 10:02:50;;;;;;;23.53;8.87;;;10.70;99.90;;;;;;4900420;29;20214;-75
2024/03/12 10:05:17;;;;;;;19.43;8.00;;;10.60;99.90;;;;;;4899399;29;20265;-74
2024/03/12 10:08:07;;;;;;;22.77;9.30;;;10.80;99.90;;;;;;4899096;29;20310;-74
2024/03/12 10:10:37;;;;;;;22.60;8.60;;;10.90;99.90;;;;;;4898631;29;20294;-75
2024/03/12 10:13:05;;;;;;;23.13;7.90;;;10.90;99.90;;;;;;4899224;29;20213;-74
2024/03/12 10:15:33;;;;;;;20.00;8.90;;;11.10;99.90;;;;;;4899149;29;20238;-74
2024/03/12 10:18:01;;;;;;;26.90;9.23;;;11.40;99.90;;;;;;4899360;29;20249;-74
2024/03/12 10:20:28;;;;;;;27.50;10.33;;;11.60;99.90;;;;;;4899386;29;20579;-75
2024/03/12 10:23:09;;;;;;;21.43;9.07;;;11.70;99.90;;;;;;4898557;29;20298;-74
2024/03/12 10:25:36;;;;;;;27.63;10.80;;;11.70;99.90;;;;;;4898476;29;20292;-75
2024/03/12 10:28:05;;;;;;;21.13;8.43;;;11.80;99.90;;;;;;4899205;29;20274;-74
2024/03/12 10:30:34;;;;;;;24.23;9.57;;;11.80;99.90;;;;;;4899392;29;20214;-75
2024/03/12 10:33:13;;;;;;;27.73;10.83;;;11.90;99.90;;;;;;4898869;29;20246;-73
2024/03/12 10:35:41;;;;;;;23.50;9.33;;;11.80;99.90;;;;;;4897988;29;20569;-73
2024/03/12 10:38:11;;;;;;;24.60;9.70;;;11.60;99.90;;;;;;4898122;29;20214;-74
2024/03/12 10:40:38;;;;;;;27.93;9.30;;;11.60;99.90;;;;;;4898397;29;20677;-73
2024/03/12 10:43:08;;;;;;;23.23;9.93;;;11.40;99.90;;;;;;4899057;29;20213;-74
2024/03/12 10:45:38;;;;;;;22.10;9.43;;;11.40;99.90;;;;;;4898620;29;20262;-73
2024/03/12 10:48:09;;;;;;;29.23;10.90;;;11.70;99.90;;;;;;4898268;29;20213;-73
2024/03/12 10:50:38;;;;;;;19.27;9.43;;;11.80;99.90;;;;;;4898149;29;20727;-73
2024/03/12 10:53:07;;;;;;;24.83;8.97;;;11.70;99.90;;;;;;4898872;29;20210;-73
2024/03/12 10:55:36;;;;;;;25.60;9.83;;;11.80;99.90;;;;;;4898356;29;20632;-73
2024/03/12 10:58:07;;;;;;;27.83;10.47;;;12.00;99.90;;;;;;4898081;29;20210;-73
2024/03/12 11:00:39;;;;;;;23.60;9.90;;;12.20;99.90;;;;;;4897891;29;20555;-73
2024/03/12 11:03:08;;;;;;;22.73;8.00;;;12.30;99.90;;;;;;4898346;29;20675;-73
2024/03/12 11:05:38;;;;;;;24.20;9.33;;;12.40;99.90;;;;;;4896633;29;20222;-73
2024/03/12 11:08:10;;;;;;;25.30;9.90;;;12.20;99.90;;;;;;4898363;29;20239;-74
2024/03/12 11:10:37;;;;;;;21.90;8.87;;;12.30;99.90;;;;;;4899263;29;20218;-74
2024/03/12 11:13:06;;;;;;;26.20;9.47;;;12.30;99.90;;;;;;4899084;29;20211;-74
2024/03/12 11:15:33;;;;;;;23.03;9.07;;;12.60;99.90;;;;;;4899629;29;20231;-74
2024/03/12 11:18:03;;;;;;;21.50;9.67;;;12.40;99.90;;;;;;4899365;29;20675;-74
2024/03/12 11:20:31;;;;;;;21.97;8.70;;;12.40;99.90;;;;;;4899408;29;20294;-74
2024/03/12 11:23:00;;;;;;;19.87;8.63;;;12.50;99.90;;;;;;4899570;29;20246;-74
2024/03/12 11:25:28;;;;;;;19.40;8.07;;;12.40;99.90;;;;;;4898540;29;20576;-74
2024/03/12 11:28:22;;;;;;;23.47;8.90;;;12.40;99.90;;;;;;4898794;29;20301;-74
2024/03/12 11:30:59;;;;;;;19.30;8.00;;;12.40;99.90;;;;;;4893196;29;20215;-74
2024/03/12 11:33:45;;;;;;;22.53;9.20;;;12.30;99.90;;;;;;4898876;29;20206;-74
2024/03/12 11:36:14;;;;;;;19.90;8.13;;;12.50;99.90;;;;;;4898620;29;20294;-73
2024/03/12 11:38:41;;;;;;;20.30;7.57;;;12.70;99.90;;;;;;4899016;29;20202;-74
2024/03/12 11:41:09;;;;;;;17.03;7.50;;;12.70;99.90;;;;;;4898424;29;20715;-74
2024/03/12 11:43:39;;;;;;;19.37;8.27;;;12.60;99.90;;;;;;4898753;29;20222;-74
2024/03/12 11:46:06;;;;;;;17.07;7.30;;;12.60;99.90;;;;;;4898653;29;20722;-74
2024/03/12 11:48:35;;;;;;;16.43;7.17;;;12.70;99.90;;;;;;4898540;29;20274;-74
2024/03/12 11:51:04;;;;;;;17.20;7.03;;;12.70;99.90;;;;;;4898885;29;20238;-74
2024/03/12 11:53:33;;;;;;;16.13;7.53;;;12.60;99.90;;;;;;4898945;29;20544;-74
2024/03/12 11:56:10;;;;;;;18.40;8.03;;;12.70;99.90;;;;;;4897955;29;20286;-73
2024/03/12 11:58:41;;;;;;;16.63;6.50;;;12.60;99.90;;;;;;4898522;29;20206;-75
2024/03/12 12:01:10;;;;;;;14.23;6.70;;;12.80;99.90;;;;;;4898089;29;20591;-74
2024/03/12 12:03:37;;;;;;;16.43;7.60;;;12.60;99.90;;;;;;4898682;29;20234;-74
2024/03/12 12:06:09;;;;;;;15.00;6.60;;;12.40;99.90;;;;;;4898590;29;20258;-74
2024/03/12 12:08:37;;;;;;;14.23;7.10;;;12.30;99.90;;;;;;4898236;29;20216;-74
2024/03/12 12:11:09;;;;;;;17.27;7.50;;;12.40;99.90;;;;;;4898184;29;20222;-74
2024/03/12 12:13:36;;;;;;;19.37;8.03;;;12.40;99.90;;;;;;4898637;29;20210;-74
2024/03/12 12:16:05;;;;;;;17.63;7.40;;;12.30;99.90;;;;;;4898391;29;20313;-73
2024/03/12 12:18:33;;;;;;;18.13;7.00;;;12.20;99.90;;;;;;4898460;29;20221;-74
2024/03/12 12:21:02;;;;;;;15.33;6.50;;;12.10;99.90;;;;;;4898163;29;20207;-73
2024/03/12 12:23:31;;;;;;;14.67;6.87;;;12.00;99.90;;;;;;4898121;29;20245;-74
2024/03/12 12:25:59;;;;;;;12.23;4.63;;;11.80;99.90;;;;;;4898007;29;20230;-74
2024/03/12 12:28:27;;;;;;;14.13;6.43;;;11.80;99.90;;;;;;4898062;29;20214;-73
2024/03/12 12:30:59;;;;;;;14.67;6.37;;;11.70;99.90;;;;;;4898007;29;20226;-74
2024/03/12 12:33:28;;;;;;;14.03;6.30;;;11.50;99.90;;;;;;4898058;29;20744;-73
2024/03/12 12:35:56;;;;;;;13.30;5.67;;;11.30;99.90;;;;;;4897615;29;20222;-73
2024/03/12 12:38:25;;;;;;;12.27;5.20;;;11.10;99.90;;;;;;4898133;29;20241;-73
2024/03/12 12:40:55;;;;;;;18.83;6.47;;;11.10;99.90;;;;;;4897651;29;20210;-73
2024/03/12 12:43:22;;;;;;;13.80;5.93;;;11.20;99.90;;;;;;4898208;29;20591;-73
2024/03/12 12:45:50;;;;;;;11.90;4.70;;;11.20;99.90;;;;;;4897957;29;20254;-74
2024/03/12 12:48:17;;;;;;;15.30;5.80;;;11.10;99.90;;;;;;4897528;29;20750;-74
2024/03/12 12:50:53;;;;;;;12.30;5.30;;;10.90;99.90;;;;;;4897479;29;20210;-74
2024/03/12 12:53:21;;;;;;;12.90;4.50;;;11.00;99.90;;;;;;4898070;29;20305;-74
2024/03/12 12:55:57;;;;;;;14.83;5.40;;;11.10;99.90;;;;;;4897781;29;20309;-74
2024/03/12 12:58:25;;;;;;;15.30;5.37;;;11.00;99.90;;;;;;4897672;29;20723;-74
2024/03/12 13:01:01;;;;;;;12.67;5.77;;;11.10;99.90;;;;;;4897672;29;20203;-74
2024/03/12 13:03:33;;;;;;;10.90;4.50;;;11.30;99.90;;;;;;4897663;29;20739;-74
2024/03/12 13:06:13;;;;;;;12.73;4.80;;;11.30;99.90;;;;;;4897980;29;20260;-74
2024/03/12 13:08:41;;;;;;;12.77;5.37;;;11.10;99.90;;;;;;4897622;29;20548;-74
2024/03/12 13:11:10;;;;;;;12.93;5.60;;;11.10;99.90;;;;;;4897284;29;20899;-74
2024/03/12 13:13:38;;;;;;;10.47;4.70;;;11.10;99.90;;;;;;4897689;29;20257;-74
2024/03/12 13:16:17;;;;;;;10.77;4.70;;;11.10;99.90;;;;;;4897831;29;20265;-74
2024/03/12 13:18:46;;;;;;;13.33;4.77;;;10.90;99.90;;;;;;4897576;29;20202;-74
2024/03/12 13:21:14;;;;;;;11.57;4.70;;;10.90;99.90;;;;;;4898406;29;20305;-74
2024/03/12 13:23:41;;;;;;;10.60;5.30;;;10.80;99.90;;;;;;4901323;29;20210;-74
2024/03/12 13:26:08;;;;;;;12.47;5.30;;;10.80;99.90;;;;;;4901255;29;20261;-74
2024/03/12 13:28:37;;;;;;;9.13;4.20;;;10.90;99.90;;;;;;4901325;29;20336;-74
2024/03/12 13:31:05;;;;;;;9.97;4.77;;;10.90;99.90;;;;;;4901294;29;20246;-74
2024/03/12 13:33:32;;;;;;;13.17;4.67;;;10.90;99.90;;;;;;4901310;29;20214;-73
2024/03/12 13:35:59;;;;;;;9.67;4.20;;;10.80;99.90;;;;;;4900761;29;20230;-74
2024/03/12 13:38:27;;;;;;;9.97;4.07;;;10.90;99.90;;;;;;4900998;29;20220;-74
2024/03/12 13:40:55;;;;;;;9.53;4.03;;;10.90;99.90;;;;;;4900991;29;20553;-74
2024/03/12 13:43:23;;;;;;;9.27;3.70;;;10.80;99.90;;;;;;4901217;29;20242;-74
2024/03/12 13:45:52;;;;;;;10.53;4.20;;;10.80;99.90;;;;;;4900924;29;20737;-74
2024/03/12 13:48:19;;;;;;;10.63;4.60;;;10.80;99.90;;;;;;4900942;29;20245;-74
2024/03/12 13:50:47;;;;;;;10.60;4.17;;;10.90;99.90;;;;;;4901045;29;20230;-74
2024/03/12 13:53:14;;;;;;;13.50;4.77;;;10.80;99.90;;;;;;4900742;29;20245;-74
2024/03/12 13:55:41;;;;;;;7.97;3.93;;;10.90;99.90;;;;;;4900745;29;20258;-74
2024/03/12 13:58:08;;;;;;;10.23;4.03;;;11.00;99.90;;;;;;4901240;29;20215;-74
2024/03/12 14:00:35;;;;;;;9.50;3.90;;;11.10;99.90;;;;;;4900651;29;20293;-74
2024/03/12 14:03:04;;;;;;;10.57;4.30;;;11.10;99.90;;;;;;4900834;29;20242;-74
2024/03/12 14:05:31;;;;;;;10.43;4.77;;;11.20;99.90;;;;;;4900410;29;20278;-75
2024/03/12 14:07:58;;;;;;;10.87;4.17;;;11.20;99.90;;;;;;4900403;29;20301;-74
2024/03/12 14:10:25;;;;;;;11.63;4.27;;;11.20;99.90;;;;;;4900194;29;20305;-74
2024/03/12 14:12:52;;;;;;;9.33;4.10;;;11.30;99.90;;;;;;4900420;29;20723;-74
2024/03/12 14:15:20;;;;;;;9.13;3.83;;;11.40;99.90;;;;;;4900089;29;20234;-74
2024/03/12 14:17:47;;;;;;;10.73;4.87;;;11.30;99.90;;;;;;4900128;29;20211;-74
2024/03/12 14:20:15;;;;;;;8.80;4.20;;;11.30;99.90;;;;;;4900231;29;20241;-74
2024/03/12 14:22:44;;;;;;;9.00;3.43;;;11.30;99.90;;;;;;4900030;29;20823;-74
2024/03/12 14:25:12;;;;;;;8.80;3.93;;;11.30;99.90;;;;;;4900345;29;20241;-74
2024/03/12 14:27:39;;;;;;;9.93;3.73;;;11.20;99.90;;;;;;4900132;29;20241;-74
2024/03/12 14:30:09;;;;;;;11.63;4.70;;;11.10;99.90;;;;;;4900165;29;20252;-74
2024/03/12 14:32:36;;;;;;;9.37;4.20;;;11.10;99.90;;;;;;4899190;29;20214;-74
2024/03/12 14:35:04;;;;;;;11.30;3.93;;;11.10;99.90;;;;;;4900072;29;20321;-74
2024/03/12 14:37:33;;;;;;;7.83;3.23;;;11.10;99.90;;;;;;4900132;29;20213;-74
2024/03/12 14:40:00;;;;;;;9.77;4.17;;;11.20;99.90;;;;;;4899872;29;20211;-74
2024/03/12 14:42:28;;;;;;;8.47;3.80;;;11.20;99.90;;;;;;4900042;29;20724;-74
2024/03/12 14:44:55;;;;;;;9.80;3.57;;;11.10;99.90;;;;;;4900150;29;20261;-74
2024/03/12 14:47:22;;;;;;;6.10;3.00;;;10.90;99.90;;;;;;4899876;29;20642;-74
2024/03/12 14:49:49;;;;;;;6.37;3.07;;;10.80;99.90;;;;;;4902287;29;20258;-74
2024/03/12 14:52:16;;;;;;;11.70;3.67;;;10.70;99.90;;;;;;4904608;29;20246;-74
2024/03/12 14:54:44;;;;;;;5.80;3.03;;;10.50;99.90;;;;;;4903569;29;20238;-74
2024/03/12 14:57:11;;;;;;;7.17;3.53;;;10.50;99.90;;;;;;4903542;29;20700;-75
2024/03/12 14:59:39;;;;;;;6.50;3.53;;;10.50;99.90;;;;;;4899648;29;20217;-75
2024/03/12 15:02:06;;;;;;;5.43;2.90;;;10.50;99.90;;;;;;4899553;29;20226;-75
2024/03/12 15:04:35;;;;;;;6.67;2.90;;;10.40;99.90;;;;;;4900040;29;20234;-75
2024/03/12 15:07:02;;;;;;;6.80;2.83;;;10.30;99.90;;;;;;4900263;29;20203;-74
2024/03/12 15:09:32;;;;;;;7.67;3.27;;;10.30;99.90;;;;;;4927752;23;20336;-80
2024/03/12 15:12:00;;;;;;;7.20;2.83;;;10.40;99.90;;;;;;4917938;29;20276;-79
2024/03/12 15:14:28;;;;;;;5.40;2.63;;;10.30;99.90;;;;;;4917970;29;20220;-78
2024/03/12 15:16:57;;;;;;;4.57;2.67;;;10.30;99.90;;;;;;4917933;29;20235;-80
2024/03/12 15:19:24;;;;;;;5.43;2.70;;;10.20;99.90;;;;;;4917923;29;20304;-80
2024/03/12 15:21:51;;;;;;;5.20;2.60;;;10.20;99.90;;;;;;4918016;29;20234;-80
2024/03/12 15:24:19;;;;;;;6.57;2.33;;;10.10;99.90;;;;;;4918053;29;20212;-80
2024/03/12 15:26:48;;;;;;;5.90;2.70;;;10.10;99.90;;;;;;4917990;29;20232;-80
2024/03/12 15:29:18;;;;;;;4.47;2.37;;;10.20;99.90;;;;;;4917806;29;20269;-80
2024/03/12 15:31:46;;;;;;;4.67;1.90;;;10.10;99.90;;;;;;4917725;29;20220;-77
2024/03/12 15:34:13;;;;;;;4.17;1.90;;;10.10;99.90;;;;;;4917836;29;20209;-80
2024/03/12 15:36:41;;;;;;;10.30;2.20;;;10.00;99.90;;;;;;4917624;29;20644;-79
2024/03/12 15:39:08;;;;;;;5.23;2.00;;;10.00;99.90;;;;;;4917920;29;20294;-79
2024/03/12 15:41:35;;;;;;;5.03;2.17;;;10.10;99.90;;;;;;4917634;29;20208;-75
2024/03/12 15:44:02;;;;;;;2.77;1.40;;;10.00;99.90;;;;;;4917344;29;20237;-74
2024/03/12 15:46:31;;;;;;;2.33;1.50;;;9.90;99.90;;;;;;4917450;29;20249;-75
2024/03/12 15:48:58;;;;;;;2.03;1.40;;;9.90;99.90;;;;;;4917424;29;20255;-75
2024/03/12 15:51:27;;;;;;;2.10;1.43;;;9.80;99.90;;;;;;4917476;29;20237;-76
2024/03/12 15:53:53;;;;;;;3.47;1.33;;;9.80;99.90;;;;;;4917449;29;20213;-76
2024/03/12 15:56:22;;;;;;;3.67;1.70;;;9.90;99.90;;;;;;4917279;29;20313;-76
2024/03/12 15:58:50;;;;;;;2.70;1.47;;;9.80;99.90;;;;;;4917310;29;20206;-75
2024/03/12 16:01:17;;;;;;;2.63;1.17;;;9.80;99.90;;;;;;4917395;29;20245;-76
2024/03/12 16:03:46;;;;;;;5.10;1.50;;;9.80;99.90;;;;;;4917398;29;20245;-76
2024/03/12 16:06:12;;;;;;;2.77;1.90;;;9.70;99.90;;;;;;4917139;29;20316;-75
2024/03/12 16:08:39;;;;;;;1.87;1.20;;;9.80;99.90;;;;;;4916947;29;20725;-76
2024/03/12 16:11:08;;;;;;;3.83;1.90;;;9.90;99.90;;;;;;4916776;29;20472;-76
2024/03/12 16:13:35;;;;;;;3.53;1.30;;;9.90;99.90;;;;;;4917021;29;20673;-76
2024/03/12 16:16:02;;;;;;;3.13;1.40;;;9.70;99.90;;;;;;4916921;29;20240;-76
2024/03/12 16:18:29;;;;;;;2.20;1.10;;;9.70;99.90;;;;;;4916544;29;20300;-76
2024/03/12 16:20:58;;;;;;;2.70;1.33;;;9.70;99.90;;;;;;4917270;29;20209;-76
2024/03/12 16:23:24;;;;;;;2.30;1.27;;;9.80;99.90;;;;;;4916759;29;20622;-76
2024/03/12 16:25:52;;;;;;;2.40;1.37;;;9.70;99.90;;;;;;4916913;29;20283;-76
2024/03/12 16:28:19;;;;;;;2.27;1.30;;;9.70;99.90;;;;;;4916831;29;20237;-77
2024/03/12 16:30:46;;;;;;;2.20;1.20;;;9.60;99.90;;;;;;4916845;29;20216;-77
2024/03/12 16:33:14;;;;;;;4.50;1.30;;;9.70;99.90;;;;;;4916866;29;20229;-78
2024/03/12 16:35:41;;;;;;;3.20;1.60;;;9.70;99.90;;;;;;4916244;29;20571;-77
2024/03/12 16:38:12;;;;;;;3.47;0.90;;;9.80;99.90;;;;;;4916841;29;20213;-77
2024/03/12 16:40:39;;;;;;;2.47;1.13;;;9.70;99.90;;;;;;4916936;29;20213;-77
2024/03/12 16:43:06;;;;;;;1.70;0.80;;;9.70;99.90;;;;;;4916942;29;20265;-75
2024/03/12 16:45:33;;;;;;;2.00;1.10;;;9.70;99.90;;;;;;4916722;29;20312;-76
2024/03/12 16:48:01;;;;;;;1.90;1.00;;;9.70;99.90;;;;;;4916560;29;20234;-74
2024/03/12 16:50:28;;;;;;;4.33;0.93;;;9.60;99.90;;;;;;4916439;29;20244;-81
2024/03/12 16:52:55;;;;;;;1.80;1.20;;;9.70;99.90;;;;;;4916298;29;20211;-79
2024/03/12 16:55:24;;;;;;;2.90;1.20;;;9.80;99.90;;;;;;4915676;29;20240;-75
2024/03/12 16:57:51;;;;;;;2.07;1.20;;;9.70;99.90;;;;;;4916439;29;20289;-74
2024/03/12 17:00:18;;;;;;;3.37;1.30;;;9.70;99.90;;;;;;4916622;29;20252;-75
2024/03/12 17:02:46;;;;;;;1.00;0.70;;;9.80;99.90;;;;;;4916330;29;20321;-79
2024/03/12 17:05:16;;;;;;;1.73;1.00;;;9.80;99.90;;;;;;4916507;29;20230;-75
2024/03/12 17:07:48;;;;;;;1.57;0.90;;;9.80;99.90;;;;;;4916631;29;20205;-75
2024/03/12 17:10:15;;;;;;;1.33;0.93;;;9.80;99.90;;;;;;4916246;29;20221;-77
2024/03/12 17:12:44;;;;;;;2.23;1.20;;;9.80;99.90;;;;;;4916356;29;20253;-77
2024/03/12 17:15:14;;;;;;;1.80;1.10;;;9.80;99.90;;;;;;4916098;29;20718;-75
2024/03/12 17:17:41;;;;;;;1.63;0.90;;;9.70;99.90;;;;;;4915863;29;20717;-76
2024/03/12 17:20:10;;;;;;;1.97;1.00;;;9.80;99.90;;;;;;4916104;29;20644;-74
2024/03/12 17:22:37;;;;;;;1.83;1.00;;;9.80;99.90;;;;;;4915956;29;20292;-74
2024/03/12 17:25:05;;;;;;;1.10;0.70;;;9.80;99.90;;;;;;4915899;29;20829;-80
2024/03/12 17:27:32;;;;;;;1.70;1.00;;;9.80;99.90;;;;;;4915935;29;20625;-78
2024/03/12 17:30:01;;;;;;;1.40;0.83;;;9.90;99.90;;;;;;4915756;29;20238;-77
2024/03/12 17:32:29;;;;;;;4.00;1.33;;;9.90;99.90;;;;;;4915949;29;20256;-75
2024/03/12 17:34:59;;;;;;;1.83;0.97;;;10.00;99.90;;;;;;4916156;29;20647;-76
2024/03/12 17:37:33;;;;;;;1.87;0.87;;;9.90;99.90;;;;;;4916116;29;20205;-79
2024/03/12 17:40:12;;;;;;;1.73;1.00;;;9.90;99.90;;;;;;4916087;29;20598;-75
2024/03/12 17:42:39;;;;;;;1.10;0.73;;;10.00;99.90;;;;;;4916037;29;20663;-75
2024/03/12 17:45:12;;;;;;;1.17;0.70;;;10.00;99.90;;;;;;4916164;29;20264;-75
2024/03/12 17:47:39;;;;;;;1.40;0.93;;;9.90;99.90;;;;;;4915657;29;20202;-75
2024/03/12 17:50:08;;;;;;;1.70;0.87;;;9.80;99.90;;;;;;4916123;29;20216;-75
2024/03/12 17:52:36;;;;;;;1.40;0.93;;;9.80;99.90;;;;;;4916067;29;20345;-75
2024/03/12 17:55:03;;;;;;;1.90;1.13;;;9.80;99.90;;;;;;4915958;29;20325;-75
2024/03/12 17:57:33;;;;;;;2.23;1.13;;;9.90;99.90;;;;;;4916045;29;20236;-74
2024/03/12 18:00:01;;;;;;;1.23;0.90;;;9.80;99.90;;;;;;4916012;29;20245;-78
2024/03/12 18:02:30;;;;;;;2.30;1.20;;;9.80;99.90;;;;;;4915819;29;20202;-75
2024/03/12 18:04:57;;;;;;;1.33;1.03;;;9.80;99.90;;;;;;4915886;29;20269;-75
2024/03/12 18:07:26;;;;;;;1.53;1.00;;;9.80;99.90;;;;;;4916859;29;20671;-75
2024/03/12 18:09:54;;;;;;;2.00;1.40;;;9.80;99.90;;;;;;4918970;29;20229;-75
2024/03/12 18:12:22;;;;;;;3.70;1.57;;;9.90;99.90;;;;;;4919254;29;20253;-79
2024/03/12 18:14:49;;;;;;;2.20;1.10;;;9.90;99.90;;;;;;4919165;29;20220;-76
2024/03/12 18:17:18;;;;;;;2.13;1.40;;;10.00;99.90;;;;;;4919334;29;20296;-72
2024/03/12 18:19:46;;;;;;;2.03;1.27;;;10.00;99.90;;;;;;4919232;29;20312;-74
2024/03/12 18:22:16;;;;;;;3.30;1.17;;;10.00;99.90;;;;;;4919053;29;20727;-75
2024/03/12 18:24:43;;;;;;;2.70;0.90;;;10.00;99.90;;;;;;4918949;29;20590;-81
2024/03/12 18:27:12;;;;;;;2.13;1.20;;;10.00;99.90;;;;;;4918868;29;20210;-75
2024/03/12 18:29:39;;;;;;;2.87;1.20;;;10.00;99.90;;;;;;4911766;29;20261;-82
2024/03/12 18:32:06;;;;;;;1.93;1.30;;;10.00;99.90;;;;;;4910684;29;20293;-75
2024/03/12 18:34:33;;;;;;;2.17;1.10;;;10.00;99.90;;;;;;4906763;29;20697;-81
2024/03/12 18:37:04;;;;;;;3.33;1.60;;;10.00;99.90;;;;;;4918603;29;20738;-74
2024/03/12 18:39:31;;;;;;;2.70;0.97;;;10.10;99.90;;;;;;4923711;29;20210;-74
2024/03/12 18:41:58;;;;;;;2.30;1.40;;;10.20;99.90;;;;;;4918528;29;20241;-82
2024/03/12 18:44:26;;;;;;;1.83;1.27;;;10.20;99.90;;;;;;4918348;29;20300;-75
2024/03/12 18:46:54;;;;;;;2.63;1.40;;;10.20;99.90;;;;;;4917830;29;20305;-76
2024/03/12 18:49:21;;;;;;;2.43;1.70;;;10.20;99.90;;;;;;4917565;29;20265;-76
2024/03/12 18:51:50;;;;;;;1.77;1.30;;;10.30;99.90;;;;;;4917846;29;20675;-76
2024/03/12 18:54:20;;;;;;;3.53;1.50;;;10.40;99.90;;;;;;4906081;29;20244;-77
2024/03/12 18:56:49;;;;;;;3.50;1.60;;;10.40;99.90;;;;;;4917972;29;20789;-81
2024/03/12 18:59:16;;;;;;;3.60;2.07;;;10.40;99.90;;;;;;4914605;29;20209;-82
2024/03/12 19:01:46;;;;;;;3.53;2.13;;;10.40;99.90;;;;;;4915801;29;20642;-81
2024/03/12 19:04:13;;;;;;;6.20;2.90;;;10.40;99.90;;;;;;4916567;29;20320;-80
2024/03/12 19:06:42;;;;;;;7.30;3.30;;;10.50;99.90;;;;;;4917212;29;20232;-76
2024/03/12 19:09:10;;;;;;;4.17;2.60;;;10.50;99.90;;;;;;4916885;29;20268;-81
2024/03/12 19:11:39;;;;;;;3.53;2.50;;;10.50;99.90;;;;;;4916782;29;20269;-83
2024/03/12 19:14:07;;;;;;;4.27;2.53;;;10.60;99.90;;;;;;4917706;29;20241;-81
2024/03/12 19:16:35;;;;;;;5.30;2.87;;;10.70;99.90;;;;;;4916595;29;20275;-82
2024/03/12 19:19:05;;;;;;;3.70;2.57;;;10.60;99.90;;;;;;4916356;29;20241;-81
2024/03/12 19:21:33;;;;;;;5.70;3.10;;;10.80;99.90;;;;;;4917808;29;20249;-82
2024/03/12 19:24:00;;;;;;;3.60;2.43;;;10.80;99.90;;;;;;4917287;29;20276;-81
2024/03/12 19:26:27;;;;;;;4.70;2.83;;;10.80;99.90;;;;;;4917154;29;20233;-80
2024/03/12 19:28:56;;;;;;;4.10;2.97;;;10.90;99.90;;;;;;4916778;29;20248;-81
2024/03/12 19:31:23;;;;;;;5.57;3.00;;;10.90;99.90;;;;;;4917705;29;20563;-77
2024/03/12 19:33:51;;;;;;;4.70;3.00;;;11.00;99.90;;;;;;4904257;29;20216;-76
2024/03/12 19:36:22;;;;;;;5.23;3.20;;;11.00;99.90;;;;;;4908752;29;20825;-82
2024/03/12 19:38:50;;;;;;;4.47;2.80;;;10.90;99.90;;;;;;4917003;29;20675;-76
2024/03/12 19:41:17;;;;;;;4.90;2.47;;;11.00;99.90;;;;;;4917179;29;20300;-80
2024/03/12 19:43:44;;;;;;;4.30;2.80;;;11.00;99.90;;;;;;4917360;29;20321;-81
2024/03/12 19:46:14;;;;;;;8.03;3.27;;;11.00;99.90;;;;;;4917491;29;20322;-80
2024/03/12 19:48:42;;;;;;;7.00;2.97;;;11.00;99.90;;;;;;4917219;29;20205;-77
2024/03/12 19:51:10;;;;;;;5.10;3.10;;;11.00;99.90;;;;;;4917353;29;20210;-77
2024/03/12 19:53:38;;;;;;;4.60;3.00;;;11.00;99.90;;;;;;4917607;29;20265;-77
2024/03/12 19:56:06;;;;;;;4.63;2.97;;;11.10;99.90;;;;;;4916913;29;20320;-76
2024/03/12 19:58:33;;;;;;;7.00;3.30;;;11.10;99.90;;;;;;4917324;29;20663;-77
2024/03/12 20:01:00;;;;;;;4.47;2.70;;;11.20;99.90;;;;;;4916951;29;20210;-84
2024/03/12 20:03:28;;;;;;;5.50;2.63;;;11.20;99.90;;;;;;4917038;29;20293;-82
2024/03/12 20:05:56;;;;;;;3.27;2.37;;;11.30;99.90;;;;;;4916606;29;20316;-77
2024/03/12 20:08:23;;;;;;;7.43;3.90;;;11.30;99.90;;;;;;4911730;29;20308;-80
2024/03/12 20:10:50;;;;;;;8.57;3.40;;;11.30;99.90;;;;;;4913401;29;20213;-76
2024/03/12 20:13:17;;;;;;;4.33;2.60;;;11.30;99.90;;;;;;4916365;29;20680;-80
2024/03/12 20:15:44;;;;;;;5.03;2.90;;;11.40;99.90;;;;;;4916611;29;20229;-84
2024/03/12 20:18:12;;;;;;;5.40;2.77;;;11.30;99.90;;;;;;4916968;29;20213;-82
2024/03/12 20:20:41;;;;;;;4.73;3.07;;;11.40;99.90;;;;;;4916847;29;20214;-83
2024/03/12 20:23:08;;;;;;;4.50;2.57;;;11.40;99.90;;;;;;4917001;29;20308;-76
2024/03/12 20:25:35;;;;;;;4.57;2.50;;;11.40;99.90;;;;;;4916226;29;20327;-80
2024/03/12 20:28:04;;;;;;;5.67;2.50;;;11.50;99.90;;;;;;4917316;29;20208;-83
2024/03/12 20:30:32;;;;;;;6.87;3.07;;;11.50;99.90;;;;;;4915558;29;20205;-79
2024/03/12 20:33:01;;;;;;;5.67;2.97;;;11.50;99.90;;;;;;4916711;29;20212;-83
2024/03/12 20:35:29;;;;;;;3.90;2.20;;;11.50;99.90;;;;;;4916438;29;20240;-83
2024/03/12 20:37:58;;;;;;;4.23;2.03;;;11.60;99.90;;;;;;4916398;29;20209;-80
2024/03/12 20:40:27;;;;;;;3.27;1.87;;;11.60;99.90;;;;;;4916189;29;20296;-85
2024/03/12 20:42:54;;;;;;;7.00;2.33;;;11.60;99.90;;;;;;4900906;29;20210;-82
2024/03/12 20:45:22;;;;;;;5.17;2.37;;;11.60;99.90;;;;;;4915058;29;20240;-82
2024/03/12 20:47:49;;;;;;;3.73;2.17;;;11.60;99.90;;;;;;4916520;29;20217;-76
2024/03/12 20:50:18;;;;;;;3.23;2.37;;;11.70;99.90;;;;;;4916042;29;20312;-78
2024/03/12 20:52:46;;;;;;;10.57;4.03;;;11.60;99.90;;;;;;4915809;29;20221;-76
2024/03/12 20:55:14;;;;;;;6.90;2.27;;;11.70;99.90;;;;;;4915401;29;20604;-75
2024/03/12 20:57:46;;;;;;;6.47;1.87;;;11.60;99.90;;;;;;4915284;29;20220;-77
2024/03/12 21:00:17;;;;;;;5.90;2.60;;;11.60;99.90;;;;;;4916318;29;20213;-83
2024/03/12 21:02:45;;;;;;;5.80;2.20;;;11.70;99.90;;;;;;4915469;29;20308;-77
2024/03/12 21:05:12;;;;;;;4.27;1.90;;;11.60;99.90;;;;;;4915363;29;20273;-77
2024/03/12 21:07:39;;;;;;;5.60;1.83;;;11.60;99.90;;;;;;4915066;29;20619;-80
2024/03/12 21:10:07;;;;;;;7.33;1.73;;;11.60;99.90;;;;;;4914593;29;20221;-76
2024/03/12 21:12:36;;;;;;;5.67;2.13;;;11.60;99.90;;;;;;4915016;29;20248;-75
2024/03/12 21:15:06;;;;;;;6.10;2.63;;;11.60;99.90;;;;;;4913373;29;20234;-76
2024/03/12 21:17:33;;;;;;;5.90;1.90;;;11.60;99.90;;;;;;4910004;29;20232;-80
2024/03/12 21:20:00;;;;;;;5.10;1.80;;;11.60;99.90;;;;;;4915835;29;20216;-81
2024/03/12 21:22:27;;;;;;;4.93;2.07;;;11.70;99.90;;;;;;4915325;29;20237;-76
2024/03/12 21:24:57;;;;;;;6.17;2.27;;;11.70;99.90;;;;;;4915617;29;20244;-83
2024/03/12 21:27:24;;;;;;;7.63;2.20;;;11.80;99.90;;;;;;4915697;29;20281;-83
2024/03/12 21:29:52;;;;;;;6.77;1.87;;;11.80;99.90;;;;;;4915609;29;20449;-83
2024/03/12 21:32:19;;;;;;;7.70;2.70;;;11.90;99.90;;;;;;4915800;29;20209;-76
2024/03/12 21:34:47;;;;;;;4.00;1.80;;;11.90;99.90;;;;;;4916096;29;20237;-77
2024/03/12 21:37:13;;;;;;;3.37;1.77;;;11.90;99.90;;;;;;4915983;29;20240;-80
2024/03/12 21:39:40;;;;;;;5.33;1.80;;;11.80;99.90;;;;;;4915852;29;20237;-76
2024/03/12 21:42:07;;;;;;;5.10;2.03;;;11.80;99.90;;;;;;4916237;29;20237;-76
2024/03/12 21:44:36;;;;;;;5.43;1.53;;;11.90;99.90;;;;;;4919666;29;20327;-78
2024/03/12 21:47:05;;;;;;;2.00;1.53;;;11.80;99.90;;;;;;4919035;29;20619;-76
